Time;durP1;ratioP1;P1;durP2;ratioP2;P2;SDS_P1;SDS_P2;PMS_P1;PMS_P2;Temp;Humidity;BMP_temperature;BMP_pressure;BME280_temperature;BME280_humidity;BME280_pressure;Samples;Min_cycle;Max_cycle;Signal;HPM_P1;HPM_P2
2021/01/27 00:00:26;;;;;;;7.50;5.70;;;-0.20;37.70;;;;;;5083518;28;20048;-69
2021/01/27 00:02:53;;;;;;;7.18;5.55;;;-0.30;38.30;;;;;;5088862;28;20127;-69
2021/01/27 00:05:22;;;;;;;11.73;5.97;;;-0.30;37.80;;;;;;5088232;28;20136;-70
2021/01/27 00:07:50;;;;;;;5.95;4.65;;;-0.20;36.20;;;;;;5083353;28;20040;-68
2021/01/27 00:10:17;;;;;;;10.52;4.40;;;-0.10;35.00;;;;;;5083752;28;20047;-70
2021/01/27 00:12:44;;;;;;;12.27;4.88;;;0.00;33.90;;;;;;5087433;28;20059;-69
2021/01/27 00:15:14;;;;;;;6.85;4.80;;;0.00;33.90;;;;;;5088495;28;20048;-69
2021/01/27 00:17:42;;;;;;;11.32;4.90;;;0.00;32.10;;;;;;5083020;28;20095;-69
2021/01/27 00:20:11;;;;;;;7.72;4.30;;;0.00;32.80;;;;;;5082924;28;20044;-68
2021/01/27 00:22:38;;;;;;;8.02;4.70;;;0.10;32.20;;;;;;5086131;28;20044;-69
2021/01/27 00:25:08;;;;;;;7.03;5.05;;;0.10;32.60;;;;;;5085505;28;20058;-69
2021/01/27 00:27:35;;;;;;;6.85;4.45;;;0.10;32.90;;;;;;5081876;28;20127;-69
2021/01/27 00:30:02;;;;;;;8.35;4.40;;;0.00;32.40;;;;;;5085945;28;20059;-69
2021/01/27 00:32:29;;;;;;;7.88;4.15;;;0.00;32.90;;;;;;5087857;28;20048;-69
2021/01/27 00:34:57;;;;;;;6.93;4.38;;;0.10;32.00;;;;;;5084912;28;20571;-68
2021/01/27 00:37:24;;;;;;;5.20;3.85;;;0.10;31.70;;;;;;5081526;28;20044;-71
2021/01/27 00:39:50;;;;;;;7.78;4.05;;;0.20;30.00;;;;;;5083689;28;20082;-69
2021/01/27 00:42:17;;;;;;;6.07;3.97;;;0.20;30.00;;;;;;5086487;28;20040;-69
2021/01/27 00:44:44;;;;;;;7.80;3.85;;;0.20;30.30;;;;;;5084310;28;20084;-69
2021/01/27 00:47:27;;;;;;;4.88;3.58;;;0.30;30.00;;;;;;5083752;28;20152;-69
2021/01/27 00:49:54;;;;;;;5.38;3.80;;;0.30;29.80;;;;;;5081899;28;20067;-70
2021/01/27 00:52:22;;;;;;;6.75;3.83;;;0.20;30.00;;;;;;5084451;28;20048;-70
2021/01/27 00:54:49;;;;;;;6.07;3.67;;;0.20;30.00;;;;;;5085390;28;20048;-70
2021/01/27 00:57:15;;;;;;;18.77;3.80;;;0.30;30.00;;;;;;5083161;28;20044;-69
2021/01/27 00:59:42;;;;;;;4.90;3.60;;;0.20;30.20;;;;;;5080895;28;20048;-69
2021/01/27 01:02:09;;;;;;;8.98;4.35;;;0.20;29.90;;;;;;5084942;28;20161;-69
2021/01/27 01:04:36;;;;;;;9.75;3.80;;;0.30;29.70;;;;;;5085741;28;20125;-69
2021/01/27 01:07:03;;;;;;;7.40;4.10;;;0.30;29.50;;;;;;5084211;28;20044;-69
2021/01/27 01:09:31;;;;;;;6.93;3.25;;;0.30;29.60;;;;;;5080249;28;20040;-70
2021/01/27 01:11:57;;;;;;;6.30;3.85;;;0.30;29.50;;;;;;5085136;28;20059;-69
2021/01/27 01:14:25;;;;;;;13.85;3.40;;;0.30;29.60;;;;;;5086585;28;20058;-69
2021/01/27 01:16:52;;;;;;;8.68;3.28;;;0.40;29.20;;;;;;5088212;28;20056;-70
2021/01/27 01:19:19;;;;;;;4.43;3.13;;;0.30;29.40;;;;;;5079070;28;20045;-70
2021/01/27 01:21:46;;;;;;;5.97;3.20;;;0.40;29.00;;;;;;5083185;28;20555;-70
2021/01/27 01:24:13;;;;;;;4.03;3.03;;;0.60;26.10;;;;;;5085239;28;20051;-69
2021/01/27 01:26:41;;;;;;;4.30;2.78;;;0.70;25.40;;;;;;5088185;28;20616;-70
2021/01/27 01:29:08;;;;;;;5.85;3.40;;;0.80;24.30;;;;;;5079201;28;20112;-70
2021/01/27 01:31:35;;;;;;;8.15;2.90;;;0.80;23.60;;;;;;5084347;28;20422;-70
2021/01/27 01:34:02;;;;;;;4.68;2.90;;;0.80;23.30;;;;;;5086514;28;20140;-70
2021/01/27 01:36:29;;;;;;;4.57;3.13;;;0.70;24.30;;;;;;5086097;28;20132;-70
2021/01/27 01:38:56;;;;;;;4.60;3.05;;;0.70;23.60;;;;;;5078416;28;20594;-69
2021/01/27 01:41:23;;;;;;;4.82;3.08;;;0.60;24.30;;;;;;5084978;28;20056;-70
2021/01/27 01:43:51;;;;;;;5.80;3.47;;;0.60;24.10;;;;;;5083499;28;20062;-69
2021/01/27 01:46:20;;;;;;;5.72;3.55;;;0.60;23.90;;;;;;5085904;28;20044;-69
2021/01/27 01:48:50;;;;;;;5.03;3.30;;;0.60;24.30;;;;;;5082112;28;20052;-70
2021/01/27 01:51:21;;;;;;;5.40;3.13;;;0.50;24.60;;;;;;5080377;28;20070;-70
2021/01/27 01:53:51;;;;;;;5.53;3.17;;;0.50;25.20;;;;;;5086132;28;20131;-71
2021/01/27 01:56:22;;;;;;;6.88;3.83;;;0.40;25.60;;;;;;5085306;28;20124;-70
2021/01/27 01:58:54;;;;;;;5.45;3.60;;;0.30;26.50;;;;;;5082217;28;20076;-69
2021/01/27 02:01:22;;;;;;;5.65;3.70;;;0.30;26.80;;;;;;5083834;28;20062;-70
2021/01/27 02:03:50;;;;;;;5.53;3.20;;;0.40;25.60;;;;;;5084208;28;20048;-68
2021/01/27 02:06:17;;;;;;;7.70;4.10;;;0.40;25.60;;;;;;5083429;28;20048;-68
2021/01/27 02:08:46;;;;;;;6.00;3.75;;;0.40;26.00;;;;;;5080679;28;20047;-68
2021/01/27 02:11:16;;;;;;;7.00;3.92;;;0.40;26.80;;;;;;5083588;28;20054;-69
2021/01/27 02:14:07;;;;;;;7.22;4.32;;;0.40;26.60;;;;;;5085161;28;20089;-68
2021/01/27 02:16:44;;;;;;;4.90;3.67;;;0.40;26.80;;;;;;5086270;28;20043;-69
2021/01/27 02:19:42;;;;;;;8.63;4.90;;;0.40;26.90;;;;;;5079151;28;20040;-68
2021/01/27 02:22:51;;;;;;;7.75;5.00;;;0.50;26.90;;;;;;5083451;28;20040;-70
2021/01/27 02:25:59;;;;;;;9.20;4.35;;;0.40;27.70;;;;;;5083891;28;20056;-69
2021/01/27 02:28:40;;;;;;;8.50;5.20;;;0.40;29.20;;;;;;5081808;28;20048;-70
2021/01/27 02:31:15;;;;;;;9.75;5.15;;;0.40;29.20;;;;;;5082382;28;20058;-69
2021/01/27 02:34:03;;;;;;;8.02;5.10;;;0.40;29.40;;;;;;5085252;28;20040;-69
2021/01/27 02:36:37;;;;;;;7.55;4.88;;;0.40;29.60;;;;;;5085484;28;20521;-69
2021/01/27 02:39:11;;;;;;;9.45;5.43;;;0.40;29.70;;;;;;5079882;28;20051;-68
2021/01/27 02:41:47;;;;;;;9.30;5.10;;;0.40;30.40;;;;;;5081321;28;20044;-69
2021/01/27 02:44:18;;;;;;;8.60;5.18;;;0.30;30.50;;;;;;5084833;28;20047;-69
2021/01/27 02:46:51;;;;;;;8.13;5.32;;;0.30;31.50;;;;;;5086106;28;20148;-70
2021/01/27 02:49:24;;;;;;;9.65;5.78;;;0.30;31.00;;;;;;5079121;28;20059;-69
2021/01/27 02:51:57;;;;;;;8.65;5.15;;;0.30;31.40;;;;;;5082298;28;20056;-70
2021/01/27 02:54:30;;;;;;;8.15;5.25;;;0.30;31.20;;;;;;5084938;28;20478;-70
2021/01/27 02:57:01;;;;;;;8.60;5.45;;;0.30;31.20;;;;;;5084363;28;20056;-70
2021/01/27 02:59:38;;;;;;;7.70;5.18;;;0.30;31.40;;;;;;5078175;28;20040;-69
2021/01/27 03:02:10;;;;;;;9.60;6.05;;;0.20;31.00;;;;;;5081946;28;20055;-69
2021/01/27 03:04:41;;;;;;;9.90;5.55;;;0.20;31.80;;;;;;5084888;28;20067;-69
2021/01/27 03:07:12;;;;;;;7.88;5.13;;;0.20;32.00;;;;;;5084723;28;20056;-70
2021/01/27 03:09:45;;;;;;;9.07;5.63;;;0.10;31.10;;;;;;5080282;28;20063;-70
2021/01/27 03:12:12;;;;;;;8.80;5.78;;;0.00;31.30;;;;;;5082243;28;20044;-70
2021/01/27 03:14:39;;;;;;;9.13;4.78;;;0.10;32.50;;;;;;5085066;28;20048;-71
2021/01/27 03:17:10;;;;;;;8.95;5.93;;;0.10;32.40;;;;;;5085404;28;20055;-70
2021/01/27 03:19:40;;;;;;;9.07;5.75;;;0.20;32.00;;;;;;5079410;28;20052;-70
2021/01/27 03:22:14;;;;;;;10.50;5.90;;;0.10;31.10;;;;;;5083100;28;20418;-70
2021/01/27 03:24:47;;;;;;;11.57;6.15;;;0.10;32.20;;;;;;5084311;28;20552;-71
2021/01/27 03:27:18;;;;;;;9.98;6.05;;;0.10;32.00;;;;;;5085401;28;20595;-70
2021/01/27 03:29:48;;;;;;;9.90;6.07;;;0.10;31.60;;;;;;5079171;28;20064;-69
2021/01/27 03:32:21;;;;;;;8.63;5.82;;;0.20;31.70;;;;;;5084572;28;20044;-69
2021/01/27 03:35:02;;;;;;;10.50;5.93;;;0.20;31.70;;;;;;5085945;28;20063;-70
2021/01/27 03:37:42;;;;;;;11.63;6.55;;;0.20;31.20;;;;;;5081858;28;20484;-71
2021/01/27 03:40:13;;;;;;;11.60;5.70;;;0.20;31.70;;;;;;5082476;28;20048;-69
2021/01/27 03:42:45;;;;;;;9.40;5.72;;;0.20;31.10;;;;;;5084333;28;20071;-68
2021/01/27 03:45:15;;;;;;;10.00;5.85;;;0.30;30.10;;;;;;5084400;28;20052;-69
2021/01/27 03:47:51;;;;;;;11.73;6.43;;;0.30;29.80;;;;;;5079269;28;20689;-68
2021/01/27 03:50:21;;;;;;;9.52;5.65;;;0.30;30.00;;;;;;5083981;28;20055;-69
2021/01/27 03:52:52;;;;;;;8.43;5.53;;;0.40;29.70;;;;;;5087296;28;20101;-69
2021/01/27 03:55:25;;;;;;;7.95;5.07;;;0.40;29.90;;;;;;5086892;28;20106;-69
2021/01/27 03:58:01;;;;;;;8.80;5.65;;;0.30;29.90;;;;;;5085217;28;20044;-69
2021/01/27 04:00:31;;;;;;;8.73;5.53;;;0.30;30.00;;;;;;5085578;28;20552;-69
2021/01/27 04:03:01;;;;;;;9.73;5.20;;;0.30;29.80;;;;;;5087740;28;20047;-70
2021/01/27 04:05:27;;;;;;;11.55;6.00;;;0.30;29.50;;;;;;5090847;28;20052;-70
2021/01/27 04:07:55;;;;;;;9.55;5.03;;;0.30;30.10;;;;;;5086304;28;20059;-70
2021/01/27 04:10:22;;;;;;;10.38;5.55;;;0.30;30.00;;;;;;5082170;28;20107;-69
2021/01/27 04:12:49;;;;;;;10.77;5.55;;;0.30;30.00;;;;;;5088125;28;20045;-69
2021/01/27 04:15:16;;;;;;;9.20;5.20;;;0.30;29.90;;;;;;5089165;28;20052;-70
2021/01/27 04:17:43;;;;;;;11.98;6.22;;;0.40;30.30;;;;;;5084103;28;20456;-69
2021/01/27 04:20:11;;;;;;;11.43;5.28;;;0.40;30.00;;;;;;5087125;28;20758;-70
2021/01/27 04:22:38;;;;;;;7.85;5.32;;;0.50;29.40;;;;;;5090234;28;20048;-69
2021/01/27 04:25:07;;;;;;;8.77;5.03;;;0.50;29.20;;;;;;5089658;28;20585;-69
2021/01/27 04:27:34;;;;;;;9.98;5.32;;;0.50;29.20;;;;;;5086565;28;20040;-70
2021/01/27 04:30:01;;;;;;;10.48;5.75;;;0.60;29.20;;;;;;5089878;28;20097;-71
2021/01/27 04:32:28;;;;;;;10.25;5.22;;;0.60;29.20;;;;;;5089658;28;20054;-69
2021/01/27 04:34:55;;;;;;;9.00;5.60;;;0.60;29.30;;;;;;5093265;28;20062;-70
2021/01/27 04:37:22;;;;;;;10.27;6.05;;;0.60;29.40;;;;;;5088679;28;20040;-70
2021/01/27 04:39:49;;;;;;;10.52;5.43;;;0.60;30.00;;;;;;5087004;28;20044;-70
2021/01/27 04:42:21;;;;;;;11.05;6.13;;;0.70;29.90;;;;;;5088921;28;20051;-69
2021/01/27 04:44:48;;;;;;;11.98;6.55;;;0.60;30.00;;;;;;5089958;28;20040;-70
2021/01/27 04:47:25;;;;;;;9.25;6.55;;;0.60;30.20;;;;;;5091680;28;20043;-70
2021/01/27 04:49:57;;;;;;;10.30;6.63;;;0.60;31.10;;;;;;5087801;28;20068;-70
2021/01/27 04:52:39;;;;;;;9.45;6.13;;;0.60;30.80;;;;;;5089444;28;20050;-70
2021/01/27 04:55:21;;;;;;;10.85;5.85;;;0.60;30.40;;;;;;5090705;28;20043;-71
2021/01/27 04:58:01;;;;;;;11.68;6.35;;;0.60;30.60;;;;;;5085835;28;21574;-69
2021/01/27 05:00:44;;;;;;;10.90;6.18;;;0.60;30.90;;;;;;5086409;28;20047;-70
2021/01/27 05:03:20;;;;;;;9.85;6.32;;;0.60;31.70;;;;;;5086637;28;20498;-71
2021/01/27 05:05:54;;;;;;;10.90;6.55;;;0.60;32.60;;;;;;5088265;28;20049;-70
2021/01/27 05:08:26;;;;;;;10.40;6.50;;;0.70;31.90;;;;;;5087465;28;20048;-71
2021/01/27 05:10:55;;;;;;;11.07;6.03;;;0.60;31.90;;;;;;5088078;28;20112;-70
2021/01/27 05:13:30;;;;;;;9.88;5.93;;;0.70;32.30;;;;;;5086361;28;20068;-70
2021/01/27 05:15:59;;;;;;;9.30;6.35;;;0.60;31.90;;;;;;5088361;28;20058;-70
2021/01/27 05:18:26;;;;;;;9.32;6.25;;;0.60;32.00;;;;;;5085079;28;20075;-70
2021/01/27 05:20:53;;;;;;;9.13;5.95;;;0.70;31.20;;;;;;5085037;28;20070;-71
2021/01/27 05:23:20;;;;;;;8.18;5.97;;;0.70;31.40;;;;;;5084606;28;20211;-70
2021/01/27 05:26:02;;;;;;;11.60;6.35;;;0.70;31.40;;;;;;5089007;28;20050;-69
2021/01/27 05:28:33;;;;;;;11.13;6.05;;;0.70;30.30;;;;;;5084041;28;20040;-70
2021/01/27 05:31:00;;;;;;;9.02;5.55;;;0.70;29.30;;;;;;5082790;28;20051;-69
2021/01/27 05:33:48;;;;;;;8.98;5.20;;;0.70;29.60;;;;;;5086208;28;20133;-71
2021/01/27 05:36:18;;;;;;;9.63;6.13;;;0.70;29.10;;;;;;5086898;28;20127;-69
2021/01/27 05:38:45;;;;;;;8.90;5.88;;;0.70;30.20;;;;;;5079964;28;20048;-70
2021/01/27 05:41:21;;;;;;;10.38;5.30;;;0.70;29.30;;;;;;5086330;28;20052;-71
2021/01/27 05:43:52;;;;;;;7.15;5.45;;;0.70;29.50;;;;;;5085015;28;20039;-69
2021/01/27 05:46:29;;;;;;;8.50;5.32;;;0.60;30.00;;;;;;5087251;28;20157;-69
2021/01/27 05:48:56;;;;;;;10.20;6.03;;;0.70;30.30;;;;;;5079729;28;20500;-69
2021/01/27 05:51:29;;;;;;;13.70;5.50;;;0.60;30.00;;;;;;5085369;28;20055;-69
2021/01/27 05:53:57;;;;;;;9.02;5.47;;;0.70;30.30;;;;;;5086126;28;20147;-72
2021/01/27 05:56:26;;;;;;;9.80;5.45;;;0.70;30.00;;;;;;5087459;28;20440;-69
2021/01/27 05:59:03;;;;;;;9.30;5.82;;;0.70;29.70;;;;;;5079018;28;20135;-71
2021/01/27 06:01:37;;;;;;;9.63;5.57;;;0.70;29.90;;;;;;5087590;28;20054;-70
2021/01/27 06:04:20;;;;;;;11.93;5.30;;;0.70;30.00;;;;;;5085389;28;20059;-70
2021/01/27 06:06:58;;;;;;;12.85;5.88;;;0.60;29.90;;;;;;5087160;28;20044;-70
2021/01/27 06:09:49;;;;;;;9.82;5.40;;;0.70;29.10;;;;;;5079392;28;20044;-68
2021/01/27 06:12:27;;;;;;;9.02;5.60;;;0.70;29.70;;;;;;5070364;28;20040;-70
2021/01/27 06:15:12;;;;;;;11.35;5.93;;;0.70;29.40;;;;;;5084207;28;20051;-69
2021/01/27 06:17:44;;;;;;;11.88;6.07;;;0.70;29.90;;;;;;5084713;28;20104;-69
2021/01/27 06:20:29;;;;;;;7.90;5.00;;;0.70;29.60;;;;;;5084201;28;20047;-69
2021/01/27 06:23:26;;;;;;;8.95;5.78;;;0.70;30.20;;;;;;5087105;28;20044;-69
2021/01/27 06:26:16;;;;;;;11.43;6.55;;;0.70;29.80;;;;;;5088757;28;20574;-70
2021/01/27 06:29:08;;;;;;;9.43;6.13;;;0.70;30.00;;;;;;5078682;28;20064;-70
2021/01/27 06:31:50;;;;;;;9.52;5.95;;;0.70;29.90;;;;;;5083809;28;20054;-69
2021/01/27 06:34:46;;;;;;;10.02;6.70;;;0.80;29.60;;;;;;5084883;28;20144;-69
2021/01/27 06:37:25;;;;;;;11.07;6.05;;;0.80;29.80;;;;;;5085560;28;20068;-71
2021/01/27 06:40:18;;;;;;;8.45;5.93;;;0.80;29.60;;;;;;5079891;28;20048;-68
2021/01/27 06:43:14;;;;;;;8.07;5.97;;;0.90;29.20;;;;;;5081088;28;20062;-70
2021/01/27 06:45:52;;;;;;;9.13;5.70;;;0.90;29.10;;;;;;5082526;28;20051;-70
2021/01/27 06:48:32;;;;;;;10.20;6.03;;;0.80;28.80;;;;;;5080342;28;20056;-70
2021/01/27 06:51:29;;;;;;;8.68;6.28;;;0.90;29.00;;;;;;5081292;28;20059;-70
2021/01/27 06:54:25;;;;;;;9.85;5.05;;;0.90;29.40;;;;;;5084126;28;20054;-69
2021/01/27 06:57:09;;;;;;;11.45;6.63;;;0.90;29.10;;;;;;5087420;28;20055;-69
2021/01/27 07:00:13;;;;;;;12.18;5.90;;;0.90;28.90;;;;;;5079242;28;20421;-69
2021/01/27 07:03:12;;;;;;;10.48;6.00;;;0.90;28.70;;;;;;5084697;28;20051;-68
2021/01/27 07:06:16;;;;;;;10.25;5.78;;;1.00;28.70;;;;;;5084564;28;20071;-68
2021/01/27 07:09:20;;;;;;;8.82;5.70;;;1.00;27.40;;;;;;5082851;28;20131;-71
2021/01/27 07:11:55;;;;;;;7.75;5.13;;;1.00;28.10;;;;;;5083647;28;20044;-70
2021/01/27 07:14:41;;;;;;;9.27;4.93;;;1.00;27.50;;;;;;5086356;28;20494;-69
2021/01/27 07:17:24;;;;;;;10.15;5.53;;;1.00;27.20;;;;;;5084809;28;20048;-72
2021/01/27 07:20:10;;;;;;;12.10;4.93;;;1.10;26.30;;;;;;5079422;28;20662;-69
2021/01/27 07:22:44;;;;;;;8.50;4.63;;;1.10;25.30;;;;;;5082875;28;20649;-69
2021/01/27 07:25:12;;;;;;;;;;;1.10;25.20;;;;;;5084223;28;20054;-69
2021/01/27 07:27:46;;;;;;;7.68;4.88;;;1.20;25.20;;;;;;5084196;28;19934;-69
2021/01/27 07:30:18;;;;;;;7.82;4.88;;;1.20;24.60;;;;;;5083973;28;20040;-69
2021/01/27 07:32:50;;;;;;;7.63;4.38;;;1.20;24.00;;;;;;5087717;28;20052;-70
2021/01/27 07:35:22;;;;;;;6.40;4.07;;;1.30;23.20;;;;;;5087938;28;20619;-70
2021/01/27 07:37:58;;;;;;;7.78;4.53;;;1.30;23.40;;;;;;5086016;28;20101;-71
2021/01/27 07:40:28;;;;;;;7.00;3.85;;;1.40;22.40;;;;;;5085300;28;20498;-70
2021/01/27 07:42:59;;;;;;;9.18;4.20;;;1.40;22.60;;;;;;5089422;28;20494;-71
2021/01/27 07:45:29;;;;;;;8.70;4.60;;;1.40;21.30;;;;;;5088190;28;20106;-70
2021/01/27 07:48:14;;;;;;;5.88;4.05;;;1.40;22.40;;;;;;5083993;28;20052;-70
2021/01/27 07:50:41;;;;;;;7.05;4.25;;;1.50;22.20;;;;;;5084950;28;20051;-71
2021/01/27 07:53:17;;;;;;;8.40;4.32;;;1.40;21.50;;;;;;5085613;28;20044;-71
2021/01/27 07:55:52;;;;;;;5.30;4.05;;;1.40;22.90;;;;;;5086215;28;20048;-71
2021/01/27 07:58:22;;;;;;;;;;;1.50;23.60;;;;;;5083829;28;20170;-71
2021/01/27 08:00:55;;;;;;;10.00;4.35;;;1.50;23.60;;;;;;5084120;28;19920;-70
2021/01/27 08:03:34;;;;;;;8.75;4.47;;;1.50;25.00;;;;;;5084588;28;20054;-70
2021/01/27 08:06:05;;;;;;;6.88;4.88;;;1.50;25.10;;;;;;5086149;28;20052;-71
2021/01/27 08:08:45;;;;;;;7.45;4.93;;;1.50;25.60;;;;;;5082968;28;20129;-70
2021/01/27 08:11:15;;;;;;;7.43;4.13;;;1.50;25.90;;;;;;5087320;28;20047;-70
2021/01/27 08:13:43;;;;;;;6.55;4.20;;;1.50;26.70;;;;;;5087606;28;20044;-70
2021/01/27 08:16:35;;;;;;;6.75;3.88;;;1.60;27.60;;;;;;5086807;28;20056;-69
2021/01/27 08:19:21;;;;;;;6.72;4.43;;;1.60;27.60;;;;;;5082239;28;21371;-70
2021/01/27 08:21:55;;;;;;;6.93;3.95;;;1.50;28.30;;;;;;5087173;28;20149;-71
2021/01/27 08:24:56;;;;;;;6.35;4.13;;;1.40;29.70;;;;;;5087940;28;20063;-70
2021/01/27 08:27:35;;;;;;;5.03;3.75;;;1.40;32.20;;;;;;5085069;28;20134;-70
2021/01/27 08:30:24;;;;;;;9.70;4.32;;;1.30;35.00;;;;;;5085709;28;20054;-70
2021/01/27 08:33:34;;;;;;;5.85;4.00;;;1.20;36.00;;;;;;5083435;28;20051;-70
2021/01/27 08:36:04;;;;;;;5.40;3.80;;;1.30;39.70;;;;;;5089371;28;20047;-70
2021/01/27 08:38:33;;;;;;;6.40;4.07;;;1.20;42.10;;;;;;5083295;28;20056;-70
2021/01/27 08:41:02;;;;;;;6.38;4.43;;;1.30;43.30;;;;;;5085900;28;20052;-69
2021/01/27 08:43:36;;;;;;;6.97;4.38;;;1.20;44.40;;;;;;5088773;28;20056;-70
2021/01/27 08:46:33;;;;;;;7.00;4.60;;;1.20;45.90;;;;;;5088154;28;20131;-71
2021/01/27 08:49:01;;;;;;;10.35;4.47;;;1.20;46.60;;;;;;5081288;28;20821;-71
2021/01/27 08:51:49;;;;;;;6.85;4.50;;;1.30;47.80;;;;;;5088490;28;20080;-72
2021/01/27 08:54:48;;;;;;;7.50;4.25;;;1.20;47.80;;;;;;5084217;28;20052;-70
2021/01/27 08:57:23;;;;;;;7.47;4.53;;;1.20;48.00;;;;;;5088950;28;20048;-70
2021/01/27 08:59:55;;;;;;;7.07;4.07;;;1.30;49.30;;;;;;5084083;28;20063;-70
2021/01/27 09:02:54;;;;;;;8.75;4.57;;;1.30;48.60;;;;;;5087432;28;20055;-70
2021/01/27 09:05:39;;;;;;;7.22;4.40;;;1.40;49.20;;;;;;5088205;28;20127;-72
2021/01/27 09:08:29;;;;;;;7.65;3.58;;;1.40;48.80;;;;;;5085731;28;20056;-73
2021/01/27 09:10:59;;;;;;;4.97;3.40;;;1.50;49.10;;;;;;5083416;28;20139;-74
2021/01/27 09:13:36;;;;;;;4.88;3.35;;;1.30;47.30;;;;;;5088423;28;20142;-73
2021/01/27 09:16:07;;;;;;;6.35;3.50;;;1.40;49.30;;;;;;5084289;28;20072;-71
2021/01/27 09:18:35;;;;;;;5.38;3.25;;;1.30;49.60;;;;;;5077588;28;20059;-72
2021/01/27 09:21:10;;;;;;;8.75;3.17;;;1.30;50.10;;;;;;5081401;28;20509;-71
2021/01/27 09:23:37;;;;;;;5.88;3.50;;;1.30;48.80;;;;;;5083744;28;20055;-70
2021/01/27 09:26:15;;;;;;;4.60;2.90;;;1.30;49.00;;;;;;5085075;28;20520;-71
2021/01/27 09:28:43;;;;;;;4.43;3.25;;;1.20;50.30;;;;;;5086034;28;20477;-70
2021/01/27 09:31:14;;;;;;;3.90;3.13;;;1.20;49.10;;;;;;5088508;28;20111;-71
2021/01/27 09:33:42;;;;;;;8.23;3.13;;;1.20;51.10;;;;;;5087262;28;20048;-69
2021/01/27 09:36:14;;;;;;;5.78;2.47;;;1.10;50.60;;;;;;5092233;28;20055;-71
2021/01/27 09:38:42;;;;;;;4.72;2.70;;;1.10;52.30;;;;;;5087652;28;20122;-69
2021/01/27 09:41:12;;;;;;;6.13;3.20;;;1.20;52.60;;;;;;5089184;28;20045;-71
2021/01/27 09:43:43;;;;;;;7.45;3.58;;;1.30;54.90;;;;;;5089203;28;20048;-71
2021/01/27 09:46:20;;;;;;;5.43;3.40;;;1.30;55.10;;;;;;5087691;28;20053;-70
2021/01/27 09:48:48;;;;;;;4.05;2.72;;;1.30;55.10;;;;;;5084162;28;20194;-70
2021/01/27 09:51:16;;;;;;;7.10;3.15;;;1.30;55.40;;;;;;5089293;28;20048;-71
2021/01/27 09:53:45;;;;;;;5.38;3.33;;;1.30;54.90;;;;;;5090196;28;20172;-70
2021/01/27 09:56:17;;;;;;;7.97;3.38;;;1.30;53.70;;;;;;5087689;28;20078;-70
2021/01/27 09:58:44;;;;;;;8.98;3.08;;;1.40;55.20;;;;;;5085087;28;20048;-70
2021/01/27 10:01:16;;;;;;;8.18;3.55;;;1.40;55.20;;;;;;5087310;28;20093;-70
2021/01/27 10:03:46;;;;;;;6.43;3.67;;;1.40;55.30;;;;;;5090279;28;20044;-71
2021/01/27 10:06:35;;;;;;;5.07;3.45;;;1.50;54.50;;;;;;5089352;28;20050;-72
2021/01/27 10:09:06;;;;;;;6.85;3.55;;;1.40;54.50;;;;;;5079088;28;20051;-70
2021/01/27 10:11:35;;;;;;;9.38;3.85;;;1.50;55.20;;;;;;5085878;28;20048;-71
2021/01/27 10:14:06;;;;;;;8.43;3.90;;;1.30;54.80;;;;;;5087123;28;20051;-70
2021/01/27 10:16:33;;;;;;;6.60;4.50;;;1.40;55.80;;;;;;5088701;28;20119;-69
2021/01/27 10:19:04;;;;;;;10.32;5.45;;;1.40;55.40;;;;;;5082278;28;20052;-70
2021/01/27 10:21:32;;;;;;;14.23;4.97;;;1.40;55.40;;;;;;5089435;28;20052;-70
2021/01/27 10:23:59;;;;;;;8.60;4.43;;;1.40;54.20;;;;;;5090043;28;20406;-69
2021/01/27 10:26:37;;;;;;;7.82;4.70;;;1.30;54.10;;;;;;5084683;28;20051;-68
2021/01/27 10:29:22;;;;;;;7.88;4.43;;;1.30;55.10;;;;;;5081550;28;20047;-69
2021/01/27 10:31:51;;;;;;;8.63;4.90;;;1.20;53.80;;;;;;5084672;28;20498;-71
2021/01/27 10:34:40;;;;;;;8.43;5.72;;;1.40;56.10;;;;;;5084935;28;20117;-70
2021/01/27 10:37:30;;;;;;;9.70;5.30;;;1.40;53.80;;;;;;5085981;28;20055;-71
2021/01/27 10:40:25;;;;;;;10.73;5.30;;;1.30;53.40;;;;;;5083389;28;20500;-69
2021/01/27 10:42:55;;;;;;;8.68;5.28;;;1.50;54.00;;;;;;5087211;28;20063;-73
2021/01/27 10:45:34;;;;;;;6.20;4.13;;;1.40;52.90;;;;;;5083357;28;20050;-70
2021/01/27 10:48:23;;;;;;;7.70;4.03;;;1.60;54.70;;;;;;5081432;28;20079;-71
2021/01/27 10:51:01;;;;;;;6.90;3.65;;;1.50;51.40;;;;;;5077759;28;20063;-69
2021/01/27 10:53:34;;;;;;;7.88;4.60;;;1.50;53.10;;;;;;5084903;28;20089;-70
2021/01/27 10:56:01;;;;;;;7.00;4.40;;;1.60;53.40;;;;;;5087505;28;20052;-72
2021/01/27 10:58:28;;;;;;;6.47;4.20;;;1.50;50.40;;;;;;5084313;28;20063;-69
2021/01/27 11:00:55;;;;;;;7.35;3.55;;;1.50;51.40;;;;;;5085324;28;20143;-69
2021/01/27 11:03:22;;;;;;;6.20;3.60;;;1.60;53.10;;;;;;5091818;28;20062;-70
2021/01/27 11:05:51;;;;;;;7.25;3.45;;;1.80;51.70;;;;;;5090185;28;20114;-69
2021/01/27 11:08:24;;;;;;;5.82;3.60;;;1.70;51.60;;;;;;5086464;28;20054;-68
2021/01/27 11:10:52;;;;;;;;;;;1.70;50.30;;;;;;5087299;28;20050;-71
2021/01/27 11:13:19;;;;;;;7.68;3.40;;;1.60;50.00;;;;;;5088881;28;19930;-71
2021/01/27 11:15:47;;;;;;;5.95;3.63;;;1.60;47.60;;;;;;5088236;28;20044;-71
2021/01/27 11:18:13;;;;;;;6.95;3.95;;;1.80;51.60;;;;;;5084022;28;20386;-71
2021/01/27 11:25:05;;;;;;;6.70;3.58;;;1.80;48.70;;;;;;5086917;28;20073;-72
2021/01/27 11:31:20;;;;;;;5.57;3.20;;;2.20;49.00;;;;;;5082569;28;20172;-70
2021/01/27 11:33:47;;;;;;;6.80;4.13;;;2.00;48.80;;;;;;5081954;28;20106;-71
2021/01/27 11:36:17;;;;;;;9.75;3.53;;;1.90;48.70;;;;;;5090833;28;20056;-71
2021/01/27 11:38:45;;;;;;;5.68;3.50;;;2.10;47.10;;;;;;5084562;28;20048;-71
2021/01/27 11:41:12;;;;;;;3.67;2.88;;;2.20;47.10;;;;;;5083738;28;20054;-71
2021/01/27 11:43:41;;;;;;;5.47;3.22;;;2.20;45.70;;;;;;5086999;28;20048;-72
2021/01/27 11:46:09;;;;;;;5.70;3.70;;;2.30;45.70;;;;;;5090182;28;20052;-72
2021/01/27 11:48:47;;;;;;;4.78;3.35;;;2.50;44.90;;;;;;5081456;28;20140;-72
2021/01/27 11:51:14;;;;;;;5.13;3.13;;;2.40;42.70;;;;;;5087646;28;20081;-72
2021/01/27 11:53:42;;;;;;;5.80;2.85;;;2.60;43.30;;;;;;5088065;28;20128;-72
2021/01/27 11:56:10;;;;;;;6.75;3.13;;;2.50;42.70;;;;;;5088202;28;20044;-71
2021/01/27 11:58:38;;;;;;;10.68;3.40;;;2.60;41.40;;;;;;5086562;28;20144;-72
2021/01/27 12:01:05;;;;;;;5.35;2.88;;;2.60;38.50;;;;;;5081766;28;20456;-69
2021/01/27 12:03:32;;;;;;;5.05;2.85;;;2.60;36.10;;;;;;5087936;28;20044;-73
2021/01/27 12:06:00;;;;;;;4.68;2.42;;;2.40;38.10;;;;;;5087425;28;20801;-70
2021/01/27 12:08:27;;;;;;;4.15;2.72;;;2.40;39.30;;;;;;5082643;28;20052;-71
2021/01/27 12:10:54;;;;;;;2.97;2.50;;;2.60;40.20;;;;;;5088054;28;20080;-73
2021/01/27 12:13:21;;;;;;;5.28;2.38;;;2.80;38.50;;;;;;5085491;28;20044;-71
2021/01/27 12:15:50;;;;;;;6.72;2.78;;;2.60;36.10;;;;;;5089387;28;20044;-71
2021/01/27 12:18:18;;;;;;;4.57;2.78;;;2.70;36.20;;;;;;5085136;28;20524;-71
2021/01/27 12:20:46;;;;;;;4.70;1.98;;;2.60;37.00;;;;;;5084032;28;20525;-71
2021/01/27 12:23:14;;;;;;;4.55;2.22;;;2.60;36.10;;;;;;5086603;28;20135;-71
2021/01/27 12:25:41;;;;;;;4.88;1.92;;;2.60;35.40;;;;;;5087324;28;20048;-72
2021/01/27 12:28:08;;;;;;;3.25;1.95;;;2.50;34.50;;;;;;5085269;28;20056;-68
2021/01/27 12:30:35;;;;;;;4.53;2.22;;;2.50;36.00;;;;;;5086651;28;20052;-72
2021/01/27 12:33:03;;;;;;;2.17;1.63;;;2.60;35.50;;;;;;5087730;28;20515;-72
2021/01/27 12:35:31;;;;;;;4.60;2.05;;;2.70;34.50;;;;;;5086341;28;20054;-72
2021/01/27 12:37:58;;;;;;;6.22;2.35;;;2.80;33.70;;;;;;5083981;28;20062;-69
2021/01/27 12:40:26;;;;;;;3.13;2.00;;;2.90;35.00;;;;;;5079397;28;20040;-70
2021/01/27 12:42:54;;;;;;;3.08;1.98;;;2.70;32.20;;;;;;5085642;28;20056;-71
2021/01/27 12:45:23;;;;;;;4.18;1.98;;;2.80;31.10;;;;;;5080808;28;20707;-72
2021/01/27 12:47:50;;;;;;;3.55;1.65;;;2.80;31.20;;;;;;5080154;28;20072;-71
2021/01/27 12:50:18;;;;;;;5.80;2.20;;;2.90;33.70;;;;;;5080961;28;20044;-72
2021/01/27 12:52:44;;;;;;;3.45;2.15;;;2.90;32.70;;;;;;5084422;28;20070;-72
2021/01/27 12:55:14;;;;;;;3.15;2.00;;;3.10;32.40;;;;;;5085344;28;20063;-72
2021/01/27 12:57:42;;;;;;;7.55;2.17;;;3.10;33.60;;;;;;5082282;28;20142;-72
2021/01/27 13:00:13;;;;;;;4.93;1.83;;;2.90;34.40;;;;;;5083376;28;20121;-73
2021/01/27 13:02:40;;;;;;;2.97;1.70;;;3.00;34.90;;;;;;5084058;28;20050;-71
2021/01/27 13:05:09;;;;;;;3.17;1.77;;;2.90;35.50;;;;;;5083890;28;20051;-70
2021/01/27 13:07:35;;;;;;;3.40;1.75;;;2.80;36.70;;;;;;5082135;28;20078;-73
2021/01/27 13:10:04;;;;;;;2.53;1.70;;;2.70;39.00;;;;;;5081194;28;20524;-70
2021/01/27 13:12:30;;;;;;;4.05;2.17;;;2.40;35.90;;;;;;5086600;28;20044;-70
2021/01/27 13:14:58;;;;;;;5.80;2.17;;;2.50;41.80;;;;;;5084714;28;20455;-71
2021/01/27 13:17:41;;;;;;;4.43;2.28;;;2.50;41.50;;;;;;5078941;28;20147;-72
2021/01/27 13:20:11;;;;;;;3.88;2.25;;;2.50;43.00;;;;;;5078368;28;20413;-72
2021/01/27 13:22:52;;;;;;;3.70;2.30;;;2.60;43.10;;;;;;5036274;28;20049;-72
2021/01/27 13:25:22;;;;;;;3.28;2.28;;;2.70;44.40;;;;;;5040395;28;20052;-71
2021/01/27 13:28:00;;;;;;;3.70;2.10;;;2.60;41.40;;;;;;5038436;28;20061;-70
2021/01/27 13:30:29;;;;;;;2.83;1.90;;;2.70;43.90;;;;;;5037233;28;20530;-72
2021/01/27 13:32:56;;;;;;;3.90;2.08;;;2.60;41.20;;;;;;5039842;28;20049;-70
2021/01/27 13:35:26;;;;;;;2.97;2.00;;;2.70;42.30;;;;;;5042522;28;20041;-70